Drayton Plains, Michigan
Current Conditions -  °F | °C
As of 1:53 AM on Monday 22 Dec 2014 (Local Time) from KPTK Reporting Station
Haze Haze  
Wind Chill: 21°   Ceiling: Unl
Heat Index: 26°   Visibility: 5mi
Dew Point: 23°   Wind: 5mph
Humidity: 88%   Direction: 130°SE
Pressure: 30.14"   Gusts: NA
Location:  42.68°N, 83.38°W
Report Text: KPTK 220653Z AUTO 13004KT 5SM BR CLR M03/M05 A3014 RMK AO2 SLP216 T10331050
Loading
Personal Weather Stations






























Interactive Weather Map New forecast layout! Learn more

10-Day Weather Forecast

Advertisements
Track Severe Weather on mobile